Time;durP1;ratioP1;P1;durP2;ratioP2;P2;SDS_P1;SDS_P2;PMS_P1;PMS_P2;Temp;Humidity;BMP_temperature;BMP_pressure;BME280_temperature;BME280_humidity;BME280_pressure;Samples;Min_cycle;Max_cycle;Signal;HPM_P1;HPM_P2
2023/06/17 00:00:11;;;;;;;;;;;;;;;17.56;72.13;101497.38;5073144;28;19920;-65
2023/06/17 00:02:37;;;;;;;;;;;;;;;17.55;72.51;101501.09;5073087;28;19920;-68
2023/06/17 00:05:02;;;;;;;;;;;;;;;17.57;71.44;101499.06;5072450;28;19920;-63
2023/06/17 00:07:29;;;;;;;;;;;;;;;17.54;70.40;101491.34;5072391;28;19929;-66
2023/06/17 00:09:56;;;;;;;;;;;;;;;17.55;69.83;101492.19;5072619;28;19970;-65
2023/06/17 00:12:24;;;;;;;;;;;;;;;17.55;68.26;101493.03;5072328;28;19928;-63
2023/06/17 00:14:50;;;;;;;;;;;;;;;17.58;68.50;101495.31;5072435;28;19920;-66
2023/06/17 00:17:16;;;;;;;;;;;;;;;17.59;67.23;101493.47;5072545;28;20023;-63
2023/06/17 00:19:41;;;;;;;;;;;;;;;17.60;67.61;101490.59;5072225;28;20399;-67
2023/06/17 00:22:08;;;;;;;;;;;;;;;17.60;67.57;101501.34;5072260;28;20303;-64
2023/06/17 00:24:34;;;;;;;;;;;;;;;17.60;66.91;101500.53;5072074;28;19942;-65
2023/06/17 00:26:59;;;;;;;;;;;;;;;17.60;67.31;101501.34;5072419;28;19920;-65
2023/06/17 00:29:24;;;;;;;;;;;;;;;17.59;67.24;101490.78;5072266;28;19921;-64
2023/06/17 00:31:50;;;;;;;;;;;;;;;17.58;68.29;101491.81;5072093;28;20299;-64
2023/06/17 00:34:15;;;;;;;;;;;;;;;17.54;67.58;101488.66;5072047;28;19927;-66
2023/06/17 00:36:40;;;;;;;;;;;;;;;17.52;68.26;101493.41;5072141;28;19927;-64
2023/06/17 00:39:06;;;;;;;;;;;;;;;17.50;68.53;101489.25;5071871;28;19920;-65
2023/06/17 00:41:32;;;;;;;;;;;;;;;17.51;68.58;101497.13;5072513;28;19927;-65
2023/06/17 00:43:57;;;;;;;;;;;;;;;17.51;68.64;101497.13;5075229;28;19924;-65
2023/06/17 00:46:25;;;;;;;;;;;;;;;17.47;69.07;101495.84;5076021;28;19927;-66
2023/06/17 00:48:51;;;;;;;;;;;;;;;17.46;69.02;101499.56;5057969;28;19920;-63
2023/06/17 00:51:16;;;;;;;;;;;;;;;17.49;67.12;101498.34;5075720;28;19931;-65
2023/06/17 00:53:41;;;;;;;;;;;;;;;17.47;69.67;101497.69;5075599;28;20442;-65
2023/06/17 00:56:07;;;;;;;;;;;;;;;17.45;69.05;101502.44;5075893;28;19920;-64
2023/06/17 00:58:33;;;;;;;;;;;;;;;17.44;69.10;101501.59;5075889;28;19925;-66
2023/06/17 01:00:58;;;;;;;;;;;;;;;17.44;68.31;101495.38;5075859;28;19966;-63
2023/06/17 01:03:24;;;;;;;;;;;;;;;17.43;69.06;101499.94;5076945;28;19928;-62
2023/06/17 01:05:53;;;;;;;;;;;;;;;17.46;67.97;101498.72;5076191;28;19974;-63
2023/06/17 01:08:26;;;;;;;;;;;;;;;17.47;66.98;101500.41;5075363;28;19966;-64
2023/06/17 01:11:08;;;;;;;;;;;;;;;17.48;67.89;101497.50;5075573;28;19932;-65
2023/06/17 01:13:34;;;;;;;;;;;;;;;17.49;67.12;101501.88;5075577;28;20011;-64
2023/06/17 01:16:00;;;;;;;;;;;;;;;17.50;67.24;101498.16;5075374;28;19958;-66
2023/06/17 01:18:27;;;;;;;;;;;;;;;17.53;67.29;101508.53;5075651;28;19964;-65
2023/06/17 01:20:53;;;;;;;;;;;;;;;17.55;66.57;101514.56;5075297;28;20007;-64
2023/06/17 01:23:25;;;;;;;;;;;;;;;17.58;65.96;101514.19;5075913;28;19974;-64
2023/06/17 01:25:51;;;;;;;;;;;;;;;17.61;65.32;101513.81;5076242;28;19921;-65
2023/06/17 01:28:17;;;;;;;;;;;;;;;17.62;66.33;101515.47;5075304;28;19926;-66
2023/06/17 01:30:45;;;;;;;;;;;;;;;17.61;65.39;101507.56;5075525;28;19935;-65
2023/06/17 01:33:12;;;;;;;;;;;;;;;17.62;64.55;101510.09;5075156;28;19963;-64
2023/06/17 01:35:38;;;;;;;;;;;;;;;17.63;64.69;101510.91;5075183;28;19920;-64
2023/06/17 01:38:14;;;;;;;;;;;;;;;17.63;64.82;101503.66;5075312;28;19967;-64
2023/06/17 01:40:42;;;;;;;;;;;;;;;17.63;64.49;101506.34;5075371;28;20429;-64
2023/06/17 01:43:08;;;;;;;;;;;;;;;17.65;64.21;101508.91;5074896;28;20272;-62
2023/06/17 01:45:34;;;;;;;;;;;;;;;17.65;64.06;101509.72;5074892;28;19927;-66
2023/06/17 01:47:59;;;;;;;;;;;;;;;17.64;64.60;101508.06;5074944;28;20425;-64
2023/06/17 01:50:25;;;;;;;;;;;;;;;17.63;63.42;101508.22;5074909;28;20021;-65
2023/06/17 01:52:50;;;;;;;;;;;;;;;17.65;63.32;101515.13;5075621;28;20010;-63
2023/06/17 01:55:16;;;;;;;;;;;;;;;17.67;63.71;101506.00;5075642;28;19966;-64
2023/06/17 01:57:41;;;;;;;;;;;;;;;17.69;63.83;101509.38;5076961;28;19956;-64
2023/06/17 02:00:07;;;;;;;;;;;;;;;17.69;64.40;101512.91;5076118;28;19974;-64
2023/06/17 02:02:32;;;;;;;;;;;;;;;17.68;63.21;101513.94;5076529;28;19920;-65
2023/06/17 02:04:58;;;;;;;;;;;;;;;17.70;63.18;101511.03;5075626;28;20295;-66
2023/06/17 02:07:27;;;;;;;;;;;;;;;17.72;63.52;101519.75;5076582;28;19921;-66
2023/06/17 02:09:54;;;;;;;;;;;;;;;17.73;62.82;101510.66;5075326;28;19924;-65
2023/06/17 02:12:20;;;;;;;;;;;;;;;17.75;63.07;101514.81;5074997;28;19924;-64
2023/06/17 02:14:46;;;;;;;;;;;;;;;17.78;62.83;101513.59;5057491;28;19921;-67
2023/06/17 02:17:12;;;;;;;;;;;;;;;17.82;62.30;101521.09;5074866;28;20015;-64
2023/06/17 02:19:57;;;;;;;;;;;;;;;17.87;62.52;101523.22;5059492;28;19927;-64
2023/06/17 02:22:22;;;;;;;;;;;;;;;17.88;61.77;101527.59;5074109;28;19975;-67
2023/06/17 02:24:48;;;;;;;;;;;;;;;17.92;62.05;101520.78;5073985;28;19924;-65
2023/06/17 02:27:13;;;;;;;;;;;;;;;17.92;62.60;101518.91;5056020;28;19921;-65
2023/06/17 02:29:38;;;;;;;;;;;;;;;17.93;62.33;101527.88;5073775;28;19927;-65
2023/06/17 02:32:04;;;;;;;;;;;;;;;17.92;61.33;101518.91;5074188;28;19931;-64
2023/06/17 02:34:29;;;;;;;;;;;;;;;17.97;61.21;101521.06;5056151;28;19986;-65
2023/06/17 02:36:56;;;;;;;;;;;;;;;17.99;60.54;101513.63;5073894;28;19927;-64
2023/06/17 02:39:22;;;;;;;;;;;;;;;18.01;61.62;101518.81;5073658;28;19931;-66
2023/06/17 02:41:47;;;;;;;;;;;;;;;18.00;62.30;101522.53;5073538;28;20372;-65
2023/06/17 02:44:13;;;;;;;;;;;;;;;18.00;61.44;101527.94;5073520;28;20385;-64
2023/06/17 02:46:38;;;;;;;;;;;;;;;18.02;61.15;101529.41;5073829;28;19924;-64
2023/06/17 02:49:03;;;;;;;;;;;;;;;18.11;62.17;101527.41;5073389;28;19920;-66
2023/06/17 02:51:29;;;;;;;;;;;;;;;18.37;60.93;101526.81;5073464;28;20035;-64
2023/06/17 02:53:54;;;;;;;;;;;;;;;18.75;59.66;101522.75;5073521;28;19932;-65
2023/06/17 02:56:20;;;;;;;;;;;;;;;19.80;56.69;101530.50;5055468;28;19924;-66
2023/06/17 02:58:45;;;;;;;;;;;;;;;21.31;51.65;101520.63;5055329;28;20449;-65
2023/06/17 03:01:11;;;;;;;;;;;;;;;22.82;47.75;101517.06;5073514;28;20349;-62
2023/06/17 03:03:36;;;;;;;;;;;;;;;23.95;42.79;101521.91;5073089;28;19943;-66
2023/06/17 03:06:05;;;;;;;;;;;;;;;24.63;42.76;101529.63;5073311;28;19945;-64
2023/06/17 03:08:35;;;;;;;;;;;;;;;25.15;40.51;101529.69;5073193;28;20018;-66
2023/06/17 03:11:01;;;;;;;;;;;;;;;25.45;38.89;101527.63;5055371;28;19947;-66
2023/06/17 03:13:27;;;;;;;;;;;;;;;25.91;38.84;101514.84;5073000;28;19928;-67
2023/06/17 03:15:53;;;;;;;;;;;;;;;26.30;37.64;101520.38;5073171;28;20425;-63
2023/06/17 03:18:20;;;;;;;;;;;;;;;26.05;38.03;101516.19;5073192;28;19921;-64
2023/06/17 03:20:46;;;;;;;;;;;;;;;26.09;38.30;101516.53;5072785;28;19920;-64
2023/06/17 03:23:11;;;;;;;;;;;;;;;26.14;38.11;101511.97;5072963;28;19921;-64
2023/06/17 03:25:36;;;;;;;;;;;;;;;26.02;37.38;101516.69;5072869;28;19921;-65
2023/06/17 03:28:02;;;;;;;;;;;;;;;25.90;37.64;101514.00;5073368;28;19921;-64
2023/06/17 03:30:29;;;;;;;;;;;;;;;26.07;37.64;101519.50;5072730;28;19927;-65
2023/06/17 03:32:57;;;;;;;;;;;;;;;26.09;37.82;101528.25;5072884;28;19920;-65
2023/06/17 03:35:22;;;;;;;;;;;;;;;26.35;37.11;101523.25;5072801;28;20391;-65
2023/06/17 03:37:48;;;;;;;;;;;;;;;26.05;37.42;101521.66;5072665;28;19920;-66
2023/06/17 03:40:13;;;;;;;;;;;;;;;24.93;39.22;101534.94;5072640;28;19921;-65
2023/06/17 03:42:38;;;;;;;;;;;;;;;24.31;40.98;101532.69;5072403;28;19920;-62
2023/06/17 03:45:04;;;;;;;;;;;;;;;24.64;40.49;101534.84;5072700;28;19924;-63
2023/06/17 03:47:30;;;;;;;;;;;;;;;25.07;39.79;101530.06;5072642;28;19920;-63
2023/06/17 03:49:56;;;;;;;;;;;;;;;25.60;38.94;101524.34;5072634;28;19927;-67
2023/06/17 03:52:21;;;;;;;;;;;;;;;26.46;37.65;101533.25;5072410;28;19927;-64
2023/06/17 03:54:46;;;;;;;;;;;;;;;27.34;35.96;101535.03;5054462;28;20341;-64
2023/06/17 03:57:12;;;;;;;;;;;;;;;27.59;35.39;101526.31;5072540;28;19920;-64
2023/06/17 03:59:37;;;;;;;;;;;;;;;27.90;34.59;101535.69;5072434;28;20367;-65
2023/06/17 04:02:03;;;;;;;;;;;;;;;27.97;34.15;101536.28;5054476;28;20319;-65
2023/06/17 04:04:28;;;;;;;;;;;;;;;27.54;35.08;101534.47;5072272;28;20326;-66
2023/06/17 04:06:53;;;;;;;;;;;;;;;27.76;35.15;101529.00;5072252;28;19921;-65
2023/06/17 04:09:20;;;;;;;;;;;;;;;27.87;34.64;101527.16;5072075;28;19920;-65
2023/06/17 04:11:46;;;;;;;;;;;;;;;27.68;34.77;101534.91;5054580;28;19939;-65
2023/06/17 04:14:11;;;;;;;;;;;;;;;27.89;34.74;101531.28;5072362;28;19954;-64
2023/06/17 04:16:37;;;;;;;;;;;;;;;28.10;34.73;101526.00;5054857;28;20041;-66
2023/06/17 04:19:02;;;;;;;;;;;;;;;28.20;34.42;101528.81;5078280;28;19970;-64
2023/06/17 04:21:28;;;;;;;;;;;;;;;28.12;33.81;101529.31;5078803;28;19921;-65
2023/06/17 04:23:53;;;;;;;;;;;;;;;27.92;34.13;101530.78;5078843;28;19921;-66
2023/06/17 04:26:18;;;;;;;;;;;;;;;27.90;34.61;101527.47;5078574;28;19921;-66
2023/06/17 04:28:44;;;;;;;;;;;;;;;27.88;34.53;101529.63;5060934;28;19926;-65
2023/06/17 04:31:10;;;;;;;;;;;;;;;28.02;34.36;101533.59;5078894;28;19927;-65
2023/06/17 04:33:37;;;;;;;;;;;;;;;28.07;34.56;101539.13;5078883;28;19943;-63
2023/06/17 04:36:08;;;;;;;;;;;;;;;27.89;34.53;101536.75;5060580;28;20226;-64
2023/06/17 04:38:37;;;;;;;;;;;;;;;27.78;34.96;101535.03;5078846;28;19982;-66
2023/06/17 04:41:04;;;;;;;;;;;;;;;27.62;34.72;101534.03;5078864;28;19927;-65
2023/06/17 04:43:30;;;;;;;;;;;;;;;27.44;35.33;101532.41;5078904;28;20030;-67
2023/06/17 04:45:56;;;;;;;;;;;;;;;27.54;35.28;101536.38;5078610;28;19924;-63
2023/06/17 04:48:22;;;;;;;;;;;;;;;27.92;35.08;101536.25;5078698;28;20057;-66
2023/06/17 04:50:48;;;;;;;;;;;;;;;28.31;34.42;101533.31;5078615;28;20023;-66
2023/06/17 04:53:13;;;;;;;;;;;;;;;28.36;34.35;101533.38;5078338;28;20026;-64
2023/06/17 04:55:39;;;;;;;;;;;;;;;28.34;34.52;101536.38;5078818;28;19971;-64
2023/06/17 04:58:04;;;;;;;;;;;;;;;28.42;34.07;101540.53;5078736;28;19931;-64
2023/06/17 05:00:30;;;;;;;;;;;;;;;28.21;34.39;101535.94;5078706;28;19927;-66
2023/06/17 05:02:56;;;;;;;;;;;;;;;27.92;35.05;101535.41;5078548;28;20299;-65
2023/06/17 05:05:21;;;;;;;;;;;;;;;27.71;35.52;101548.06;5060546;28;20019;-65
2023/06/17 05:07:47;;;;;;;;;;;;;;;27.62;35.54;101541.41;5078692;28;19920;-64
2023/06/17 05:10:13;;;;;;;;;;;;;;;27.35;36.18;101547.63;5078563;28;19924;-64
2023/06/17 05:12:42;;;;;;;;;;;;;;;26.83;37.16;101545.28;5061213;28;20497;-64
2023/06/17 05:15:08;;;;;;;;;;;;;;;26.52;37.95;101554.94;5078967;28;20555;-66
2023/06/17 05:17:33;;;;;;;;;;;;;;;25.97;38.85;101549.31;5078740;28;20019;-63
2023/06/17 05:19:58;;;;;;;;;;;;;;;25.59;39.67;101545.31;5078406;28;19920;-63
2023/06/17 05:22:24;;;;;;;;;;;;;;;25.46;40.18;101539.34;5078322;28;20023;-65
2023/06/17 05:24:49;;;;;;;;;;;;;;;25.18;40.95;101542.88;5078927;28;19974;-65
2023/06/17 05:27:15;;;;;;;;;;;;;;;24.50;42.13;101546.19;5078408;28;19925;-65
2023/06/17 05:29:40;;;;;;;;;;;;;;;23.72;43.97;101548.00;5076265;28;19972;-65
2023/06/17 05:32:05;;;;;;;;;;;;;;;23.00;46.77;101546.16;5075206;28;19920;-65
2023/06/17 05:34:31;;;;;;;;;;;;;;;22.69;48.52;101552.50;5075132;28;19920;-63
2023/06/17 05:36:56;;;;;;;;;;;;;;;22.44;48.15;101542.47;5075145;28;19920;-62
2023/06/17 05:39:21;;;;;;;;;;;;;;;22.21;49.02;101542.25;5058091;28;19925;-65
2023/06/17 05:41:46;;;;;;;;;;;;;;;21.93;50.07;101543.44;5075275;28;19920;-63
2023/06/17 05:44:12;;;;;;;;;;;;;;;21.88;50.62;101543.28;5074988;28;19920;-66
2023/06/17 05:46:37;;;;;;;;;;;;;;;21.80;51.12;101540.81;5075014;28;20011;-64
2023/06/17 05:49:02;;;;;;;;;;;;;;;21.78;50.88;101542.09;5074845;28;19920;-64
2023/06/17 05:51:28;;;;;;;;;;;;;;;21.66;51.56;101544.66;5074570;28;19927;-63
2023/06/17 05:53:54;;;;;;;;;;;;;;;21.63;51.98;101545.91;5075068;28;19920;-66
2023/06/17 05:56:19;;;;;;;;;;;;;;;21.61;52.31;101533.63;5074922;28;19928;-66
2023/06/17 05:58:45;;;;;;;;;;;;;;;21.58;52.37;101537.59;5074873;28;19924;-65
2023/06/17 06:01:11;;;;;;;;;;;;;;;21.73;51.67;101533.78;5074819;28;19921;-64
2023/06/17 06:03:36;;;;;;;;;;;;;;;21.74;52.71;101551.72;5056680;28;19920;-66
2023/06/17 06:06:02;;;;;;;;;;;;;;;21.70;52.23;101535.06;5074491;28;19920;-65
2023/06/17 06:08:27;;;;;;;;;;;;;;;21.64;52.74;101547.56;5074529;28;19952;-65
2023/06/17 06:10:52;;;;;;;;;;;;;;;21.65;52.81;101543.81;5056409;28;19924;-65
2023/06/17 06:13:19;;;;;;;;;;;;;;;21.71;52.55;101544.84;5056361;28;20387;-63
2023/06/17 06:15:45;;;;;;;;;;;;;;;21.63;53.40;101551.34;5074312;28;20088;-65
2023/06/17 06:18:10;;;;;;;;;;;;;;;21.69;52.61;101555.09;5074727;28;19965;-64
2023/06/17 06:20:35;;;;;;;;;;;;;;;21.74;52.61;101552.56;5073997;28;19921;-66
2023/06/17 06:23:00;;;;;;;;;;;;;;;21.82;52.97;101548.75;5074012;28;19920;-65
2023/06/17 06:25:29;;;;;;;;;;;;;;;21.91;52.33;101550.13;5074408;28;19932;-65
2023/06/17 06:27:54;;;;;;;;;;;;;;;22.00;52.77;101556.16;5074146;28;20307;-64
2023/06/17 06:30:20;;;;;;;;;;;;;;;21.96;52.69;101556.56;5073875;28;19920;-65
2023/06/17 06:32:45;;;;;;;;;;;;;;;22.01;52.33;101547.78;5074051;28;19932;-66
2023/06/17 06:35:10;;;;;;;;;;;;;;;22.09;52.98;101544.00;5073653;28;19947;-64
2023/06/17 06:37:36;;;;;;;;;;;;;;;22.20;52.27;101556.84;5074023;28;20294;-65
2023/06/17 06:40:01;;;;;;;;;;;;;;;22.24;52.24;101558.91;5073199;28;20397;-65
2023/06/17 06:42:26;;;;;;;;;;;;;;;22.27;52.22;101557.66;5073562;28;19924;-64
2023/06/17 06:44:52;;;;;;;;;;;;;;;22.31;52.26;101558.88;5073833;28;19920;-62
2023/06/17 06:47:17;;;;;;;;;;;;;;;22.38;51.36;101559.66;5055578;28;19924;-65
2023/06/17 06:49:43;;;;;;;;;;;;;;;22.46;51.19;101561.25;5073547;28;19965;-65
2023/06/17 06:52:08;;;;;;;;;;;;;;;22.48;50.96;101548.28;5073294;28;19921;-64
2023/06/17 06:54:33;;;;;;;;;;;;;;;22.59;51.15;101554.88;5055824;28;19920;-64
2023/06/17 06:56:58;;;;;;;;;;;;;;;22.64;50.34;101558.59;5073533;28;19931;-66
2023/06/17 06:59:24;;;;;;;;;;;;;;;22.67;49.43;101562.75;5073294;28;19921;-67
2023/06/17 07:01:49;;;;;;;;;;;;;;;22.62;49.60;101554.44;5073090;28;19920;-64
2023/06/17 07:04:15;;;;;;;;;;;;;;;22.64;49.78;101558.59;5073303;28;20003;-63
2023/06/17 07:06:40;;;;;;;;;;;;;;;22.69;51.25;101563.34;5072918;28;20299;-65
2023/06/17 07:09:06;;;;;;;;;;;;;;;22.69;49.18;101555.19;5073030;28;20022;-65
2023/06/17 07:11:31;;;;;;;;;;;;;;;22.78;49.71;101554.69;5055222;28;19951;-65
2023/06/17 07:13:56;;;;;;;;;;;;;;;22.74;50.71;101563.50;5073215;28;20441;-65
2023/06/17 07:16:22;;;;;;;;;;;;;;;22.68;51.45;101565.22;5073002;28;19925;-66
2023/06/17 07:18:47;;;;;;;;;;;;;;;22.75;50.86;101554.31;5072996;28;20015;-64
2023/06/17 07:21:13;;;;;;;;;;;;;;;22.80;50.29;101563.44;5073272;28;19921;-65
2023/06/17 07:23:38;;;;;;;;;;;;;;;22.75;50.50;101565.16;5073657;28;19920;-64
2023/06/17 07:26:03;;;;;;;;;;;;;;;22.73;51.64;101564.56;5055569;28;19971;-64
2023/06/17 07:28:29;;;;;;;;;;;;;;;22.76;51.54;101572.25;5073000;28;19966;-65
2023/06/17 07:30:55;;;;;;;;;;;;;;;22.77;51.55;101571.19;5072778;28;19920;-64
2023/06/17 07:33:21;;;;;;;;;;;;;;;22.79;50.51;101567.19;5072678;28;19973;-64
2023/06/17 07:35:47;;;;;;;;;;;;;;;22.74;50.60;101560.78;5072825;28;20010;-63
2023/06/17 07:38:12;;;;;;;;;;;;;;;22.72;50.67;101568.31;5054940;28;19920;-65
2023/06/17 07:40:37;;;;;;;;;;;;;;;22.67;50.76;101569.00;5073424;28;19920;-64
2023/06/17 07:43:03;;;;;;;;;;;;;;;22.63;50.07;101566.97;5055678;28;19920;-64
2023/06/17 07:45:28;;;;;;;;;;;;;;;22.66;50.95;101566.50;5054573;28;19935;-65
2023/06/17 07:47:53;;;;;;;;;;;;;;;22.68;50.99;101564.41;5072643;28;19966;-65
2023/06/17 07:50:18;;;;;;;;;;;;;;;22.73;50.79;101565.38;5072497;28;20370;-65
2023/06/17 07:52:44;;;;;;;;;;;;;;;22.75;51.20;101566.00;5071622;28;20446;-65
2023/06/17 07:55:10;;;;;;;;;;;;;;;22.85;51.18;101565.53;5055369;28;20414;-62
2023/06/17 07:57:36;;;;;;;;;;;;;;;22.97;51.28;101576.47;5054995;28;20015;-67
2023/06/17 08:00:01;;;;;;;;;;;;;;;23.06;48.02;101573.22;5072942;28;19963;-64
2023/06/17 08:02:26;;;;;;;;;;;;;;;23.09;48.64;101578.22;5073238;28;19921;-65
2023/06/17 08:04:52;;;;;;;;;;;;;;;23.01;48.25;101569.53;5037535;28;19920;-64
2023/06/17 08:07:19;;;;;;;;;;;;;;;23.01;47.77;101575.78;5072378;28;19946;-64
2023/06/17 08:09:47;;;;;;;;;;;;;;;23.10;46.36;101579.88;5072483;28;19931;-64
2023/06/17 08:12:12;;;;;;;;;;;;;;;23.15;46.14;101576.50;5053979;28;19931;-64
2023/06/17 08:14:38;;;;;;;;;;;;;;;23.12;45.84;101575.03;5072349;28;20010;-64
2023/06/17 08:17:03;;;;;;;;;;;;;;;23.14;45.85;101583.00;5054613;28;19920;-64
2023/06/17 08:19:28;;;;;;;;;;;;;;;23.15;44.87;101593.63;5072123;28;20307;-66
2023/06/17 08:21:54;;;;;;;;;;;;;;;23.14;44.08;101578.38;5072346;28;19966;-63
2023/06/17 08:24:24;;;;;;;;;;;;;;;23.15;44.26;101587.38;5072154;28;20391;-68
2023/06/17 08:26:50;;;;;;;;;;;;;;;23.15;43.75;101577.34;5072048;28;20416;-67
2023/06/17 08:29:15;;;;;;;;;;;;;;;23.17;44.07;101583.38;5071971;28;20043;-66
2023/06/17 08:31:45;;;;;;;;;;;;;;;23.22;44.30;101579.13;5072452;28;20410;-69
2023/06/17 08:34:11;;;;;;;;;;;;;;;23.24;43.68;101579.75;5072187;28;19920;-65
2023/06/17 08:36:40;;;;;;;;;;;;;;;23.27;43.15;101592.88;5072146;28;20021;-66
2023/06/17 08:39:06;;;;;;;;;;;;;;;23.32;42.71;101582.16;5071716;28;20285;-65
2023/06/17 08:41:36;;;;;;;;;;;;;;;23.38;42.34;101586.66;5072143;28;19928;-65
2023/06/17 08:44:04;;;;;;;;;;;;;;;23.50;42.28;101584.88;5071206;28;20205;-66
2023/06/17 08:46:31;;;;;;;;;;;;;;;23.62;41.55;101574.91;5071916;28;19925;-64
2023/06/17 08:48:57;;;;;;;;;;;;;;;23.68;40.48;101592.19;5072160;28;19963;-65
2023/06/17 08:51:23;;;;;;;;;;;;;;;23.78;41.29;101581.59;5071894;28;20019;-64
2023/06/17 08:53:50;;;;;;;;;;;;;;;23.87;40.24;101584.81;5072036;28;19943;-65
2023/06/17 08:56:15;;;;;;;;;;;;;;;23.89;39.60;101593.59;5072037;28;19963;-63
2023/06/17 08:58:42;;;;;;;;;;;;;;;23.91;39.44;101583.28;5071753;28;19974;-63
2023/06/17 09:01:08;;;;;;;;;;;;;;;23.96;40.47;101588.88;5071620;28;20023;-65
2023/06/17 09:03:37;;;;;;;;;;;;;;;23.97;40.01;101599.53;5054848;28;20030;-66
2023/06/17 09:06:20;;;;;;;;;;;;;;;23.97;39.13;101591.34;5075869;28;19927;-63
2023/06/17 09:08:50;;;;;;;;;;;;;;;23.95;37.97;101588.03;5075519;28;19931;-66
2023/06/17 09:11:17;;;;;;;;;;;;;;;23.95;38.82;101592.66;5075293;28;19933;-66
2023/06/17 09:13:50;;;;;;;;;;;;;;;23.95;38.37;101595.38;5075165;28;20387;-65
2023/06/17 09:16:15;;;;;;;;;;;;;;;23.94;39.11;101585.56;5076049;28;19924;-65
2023/06/17 09:18:40;;;;;;;;;;;;;;;24.04;39.40;101583.13;5075521;28;19927;-66
2023/06/17 09:21:06;;;;;;;;;;;;;;;24.16;39.17;101580.41;5075325;28;19963;-66
2023/06/17 09:23:31;;;;;;;;;;;;;;;24.25;38.59;101587.19;5076357;28;20384;-65
2023/06/17 09:26:01;;;;;;;;;;;;;;;24.30;38.63;101584.66;5076743;28;20019;-64
2023/06/17 09:28:26;;;;;;;;;;;;;;;24.30;38.41;101585.47;5075596;28;19927;-66
2023/06/17 09:30:53;;;;;;;;;;;;;;;24.31;38.32;101584.41;5075130;28;20395;-64
2023/06/17 09:33:22;;;;;;;;;;;;;;;24.30;38.61;101582.75;5075354;28;20352;-65
2023/06/17 09:35:51;;;;;;;;;;;;;;;24.34;38.31;101588.56;5056985;28;19927;-66
2023/06/17 09:38:19;;;;;;;;;;;;;;;24.35;38.32;101572.00;5075189;28;19989;-65
2023/06/17 09:40:47;;;;;;;;;;;;;;;24.36;38.56;101578.25;5074757;28;20351;-66
2023/06/17 09:43:12;;;;;;;;;;;;;;;24.43;38.29;101568.09;5074949;28;19920;-64
2023/06/17 09:45:39;;;;;;;;;;;;;;;24.52;38.69;101568.56;5075028;28;19927;-65
2023/06/17 09:48:04;;;;;;;;;;;;;;;24.57;38.64;101572.22;5074863;28;19928;-65
2023/06/17 09:50:32;;;;;;;;;;;;;;;24.61;38.74;101575.34;5074664;28;19920;-63
2023/06/17 09:52:59;;;;;;;;;;;;;;;24.56;37.86;101577.91;5074711;28;20299;-65
2023/06/17 09:55:26;;;;;;;;;;;;;;;24.53;37.95;101589.28;5074592;28;19928;-67
2023/06/17 09:57:53;;;;;;;;;;;;;;;24.51;38.26;101581.34;5074779;28;19920;-64
2023/06/17 10:00:27;;;;;;;;;;;;;;;24.52;38.53;101574.84;5056849;28;19924;-65
2023/06/17 10:02:53;;;;;;;;;;;;;;;24.56;38.62;101567.03;5074743;28;19927;-68
2023/06/17 10:05:20;;;;;;;;;;;;;;;24.56;38.43;101575.19;5074551;28;19920;-64
2023/06/17 10:07:46;;;;;;;;;;;;;;;24.46;39.12;101572.22;5074553;28;19924;-66
2023/06/17 10:10:17;;;;;;;;;;;;;;;24.52;39.55;101583.00;5056391;28;19959;-63
2023/06/17 10:12:45;;;;;;;;;;;;;;;24.59;38.79;101572.03;5074826;28;19931;-63
2023/06/17 10:15:12;;;;;;;;;;;;;;;24.62;38.22;101568.81;5055574;28;20011;-67
2023/06/17 10:17:38;;;;;;;;;;;;;;;24.73;36.79;101569.88;5074389;28;19927;-62
2023/06/17 10:20:05;;;;;;;;;;;;;;;24.79;37.30;101572.47;5074656;28;19921;-66
2023/06/17 10:22:32;;;;;;;;;;;;;;;24.79;37.06;101566.19;5074278;28;19931;-65
2023/06/17 10:24:57;;;;;;;;;;;;;;;24.80;37.67;101576.84;5074540;28;19928;-67
2023/06/17 10:27:23;;;;;;;;;;;;;;;24.85;37.75;101567.97;5074151;28;20303;-66
2023/06/17 10:29:49;;;;;;;;;;;;;;;24.94;37.39;101567.41;5074019;28;19972;-67
2023/06/17 10:32:23;;;;;;;;;;;;;;;25.02;37.42;101567.06;5073797;28;19920;-65
2023/06/17 10:35:11;;;;;;;;;;;;;;;25.13;38.26;101570.00;5074160;28;20008;-65
2023/06/17 10:37:40;;;;;;;;;;;;;;;25.10;38.65;101568.56;5074098;28;19943;-65
2023/06/17 10:40:18;;;;;;;;;;;;;;;25.09;37.81;101572.38;5073795;28;19931;-66
2023/06/17 10:42:53;;;;;;;;;;;;;;;25.02;38.04;101567.06;5073649;28;19920;-64
2023/06/17 10:45:18;;;;;;;;;;;;;;;24.95;39.17;101565.50;5055575;28;19921;-67
2023/06/17 10:47:44;;;;;;;;;;;;;;;24.93;40.01;101573.91;5073726;28;20073;-68
2023/06/17 10:50:11;;;;;;;;;;;;;;;24.88;41.02;101572.97;5073721;28;19920;-65
2023/06/17 10:52:38;;;;;;;;;;;;;;;24.82;42.00;101563.81;5073582;28;19921;-64
2023/06/17 10:55:03;;;;;;;;;;;;;;;24.79;43.26;101572.47;5055782;28;20388;-67
2023/06/17 10:57:31;;;;;;;;;;;;;;;24.79;43.26;101574.38;5055469;28;19966;-65
2023/06/17 11:00:00;;;;;;;;;;;;;;;24.78;44.11;101570.81;5073242;28;19928;-65
2023/06/17 11:02:26;;;;;;;;;;;;;;;24.87;43.60;101579.50;5073991;28;19929;-67
2023/06/17 11:04:51;;;;;;;;;;;;;;;24.82;43.73;101577.44;5073599;28;19927;-65
2023/06/17 11:07:24;;;;;;;;;;;;;;;24.78;43.64;101573.53;5073322;28;20375;-65
2023/06/17 11:09:52;;;;;;;;;;;;;;;24.66;44.23;101594.50;5055305;28;19931;-65
2023/06/17 11:12:17;;;;;;;;;;;;;;;24.61;44.48;101580.78;5073618;28;19924;-67
2023/06/17 11:14:43;;;;;;;;;;;;;;;24.66;44.97;101572.72;5074013;28;19921;-65
2023/06/17 11:17:08;;;;;;;;;;;;;;;24.73;44.85;101576.16;5056059;28;19927;-65
2023/06/17 11:19:33;;;;;;;;;;;;;;;24.76;44.23;101580.28;5073183;28;19928;-65
2023/06/17 11:22:06;;;;;;;;;;;;;;;24.60;45.01;101584.56;5073469;28;19924;-64
2023/06/17 11:24:32;;;;;;;;;;;;;;;24.58;44.70;101581.25;5073279;28;20013;-64
2023/06/17 11:26:58;;;;;;;;;;;;;;;24.58;45.10;101575.81;5072859;28;19921;-68
2023/06/17 11:29:24;;;;;;;;;;;;;;;24.63;45.47;101578.66;5073566;28;19920;-66
2023/06/17 11:31:50;;;;;;;;;;;;;;;24.66;45.03;101589.06;5073332;28;19920;-65
2023/06/17 11:34:16;;;;;;;;;;;;;;;24.70;44.52;101580.19;5055408;28;20005;-62
2023/06/17 11:36:41;;;;;;;;;;;;;;;24.71;44.28;101590.00;5073646;28;19920;-67
2023/06/17 11:39:08;;;;;;;;;;;;;;;24.67;43.73;101588.00;5073041;28;19927;-64
2023/06/17 11:41:34;;;;;;;;;;;;;;;24.58;43.56;101589.44;5072513;28;19920;-64
2023/06/17 11:44:00;;;;;;;;;;;;;;;24.57;44.06;101593.19;5072809;28;20330;-65
2023/06/17 11:46:25;;;;;;;;;;;;;;;24.54;43.85;101590.94;5054900;28;19932;-65
2023/06/17 11:48:51;;;;;;;;;;;;;;;24.55;43.67;101587.16;5072848;28;19963;-66
2023/06/17 11:51:17;;;;;;;;;;;;;;;24.63;43.86;101584.09;5054672;28;20399;-65
2023/06/17 11:53:46;;;;;;;;;;;;;;;24.71;43.21;101592.75;5072425;28;20415;-66
2023/06/17 11:56:12;;;;;;;;;;;;;;;24.66;42.89;101594.50;5072354;28;19920;-66
2023/06/17 11:58:41;;;;;;;;;;;;;;;24.61;43.24;101602.56;5072605;28;20379;-66
2023/06/17 12:01:08;;;;;;;;;;;;;;;24.66;42.90;101599.97;5072670;28;19920;-66
2023/06/17 12:03:34;;;;;;;;;;;;;;;24.70;42.30;101595.69;5072617;28;20390;-65
2023/06/17 12:06:00;;;;;;;;;;;;;;;24.75;42.13;101598.53;5072418;28;19920;-63
2023/06/17 12:08:35;;;;;;;;;;;;;;;24.83;42.22;101597.34;5054067;28;20422;-66
2023/06/17 12:11:05;;;;;;;;;;;;;;;24.72;41.86;101612.63;5072331;28;19924;-65
2023/06/17 12:13:39;;;;;;;;;;;;;;;24.64;42.38;101602.94;5072545;28;19931;-66
2023/06/17 12:16:09;;;;;;;;;;;;;;;24.63;42.60;101595.00;5054303;28;20292;-68
2023/06/17 12:18:36;;;;;;;;;;;;;;;24.70;42.58;101587.53;5072335;28;20026;-63
2023/06/17 12:21:01;;;;;;;;;;;;;;;24.77;42.48;101590.97;5072306;28;19974;-64
2023/06/17 12:23:26;;;;;;;;;;;;;;;24.78;42.34;101592.63;5072243;28;19924;-65
2023/06/17 12:25:52;;;;;;;;;;;;;;;24.76;42.19;101616.53;5071887;28;20345;-65
2023/06/17 12:28:22;;;;;;;;;;;;;;;24.71;42.73;101591.91;5072100;28;19927;-63
2023/06/17 12:30:48;;;;;;;;;;;;;;;24.63;42.77;101589.53;5072897;28;20350;-66